To NAV CANADA Home Page Login to a new session Search on AWWS site Feedback and Comments Disclaimer Vers la page française équivalente Tips FAQ What's new on the site To the Forecasts and Observations / NOTAM section To "File a Flight Plan" website Publications and other links Update of the User's profile FIC Telephone Numbers My Weather Data Folder Route Weather Data Regional Weather Data Local Weather Data To the Forecasts and Observations / NOTAM section
Request Generated 05/25/2015 at 17:08:57 UTC . Weather information available at that time is displayed.

METAR/TAF

LA RONGE/LA RONGE (BARBER FIELD)/SK    

METAR CYVC 251700Z 24006KT 140V270 15SM FEW080 BKN250 24/04 A2978 RMK
CU1CI6 SLP091 DENSITY ALT 2700FT=
METAR CYVC 251600Z 26004KT 230V300 15SM BKN250 22/05 A2979 RMK CI6
SLP094 DENSITY ALT 2400FT=
METAR CYVC 251500Z 24004KT 15SM BKN250 19/06 A2980 RMK CI6 SLP096
DENSITY ALT 2100FT=

TAF CYVC 251238Z 2513/2601 VRB03KT P6SM SKC
FM252000 25008KT P6SM SCT100
BECMG 2522/2524 BKN100
RMK NXT FCST BY 251900Z=
Your time UTC time
Weather data provided by Environment Canada and NAV CANADA